sensor_id;sensor_type;location;lat;lon;timestamp;P1;durP1;ratioP1;P2;durP2;ratioP2
61204;SDS011;47068;55.780;37.520;2022-12-20T00:01:07;311.02;;;111.75;;
61204;SDS011;47068;55.780;37.520;2022-12-20T00:03:34;332.50;;;116.33;;
61204;SDS011;47068;55.780;37.520;2022-12-20T00:06:00;151.85;;;94.60;;
61204;SDS011;47068;55.780;37.520;2022-12-20T00:08:25;128.73;;;89.07;;
61204;SDS011;47068;55.780;37.520;2022-12-20T00:10:51;153.20;;;94.75;;
61204;SDS011;47068;55.780;37.520;2022-12-20T00:13:16;178.00;;;94.33;;
61204;SDS011;47068;55.780;37.520;2022-12-20T00:15:42;227.88;;;102.43;;
61204;SDS011;47068;55.780;37.520;2022-12-20T00:18:07;340.00;;;116.00;;
61204;SDS011;47068;55.780;37.520;2022-12-20T00:20:33;267.73;;;104.07;;
61204;SDS011;47068;55.780;37.520;2022-12-20T00:22:59;416.13;;;122.25;;
61204;SDS011;47068;55.780;37.520;2022-12-20T00:25:25;418.15;;;125.65;;
61204;SDS011;47068;55.780;37.520;2022-12-20T00:27:50;514.47;;;136.23;;
61204;SDS011;47068;55.780;37.520;2022-12-20T00:30:16;507.50;;;128.93;;
61204;SDS011;47068;55.780;37.520;2022-12-20T00:32:42;387.33;;;120.03;;
61204;SDS011;47068;55.780;37.520;2022-12-20T00:35:08;521.90;;;139.32;;
61204;SDS011;47068;55.780;37.520;2022-12-20T00:37:35;548.33;;;144.97;;
61204;SDS011;47068;55.780;37.520;2022-12-20T00:40:00;508.15;;;130.63;;
61204;SDS011;47068;55.780;37.520;2022-12-20T00:42:27;483.17;;;135.10;;
61204;SDS011;47068;55.780;37.520;2022-12-20T00:44:53;483.42;;;131.98;;
61204;SDS011;47068;55.780;37.520;2022-12-20T00:47:18;473.43;;;124.33;;
61204;SDS011;47068;55.780;37.520;2022-12-20T00:49:44;484.08;;;128.13;;
61204;SDS011;47068;55.780;37.520;2022-12-20T00:52:09;486.45;;;130.95;;
61204;SDS011;47068;55.780;37.520;2022-12-20T00:54:35;520.10;;;143.30;;
61204;SDS011;47068;55.780;37.520;2022-12-20T00:57:00;502.73;;;140.65;;
61204;SDS011;47068;55.780;37.520;2022-12-20T00:59:26;532.35;;;138.00;;
61204;SDS011;47068;55.780;37.520;2022-12-20T01:01:51;351.90;;;110.95;;
61204;SDS011;47068;55.780;37.520;2022-12-20T01:04:17;404.50;;;123.03;;
61204;SDS011;47068;55.780;37.520;2022-12-20T01:06:42;549.37;;;148.10;;
61204;SDS011;47068;55.780;37.520;2022-12-20T01:09:09;526.27;;;139.57;;
61204;SDS011;47068;55.780;37.520;2022-12-20T01:11:35;488.03;;;136.20;;
61204;SDS011;47068;55.780;37.520;2022-12-20T01:14:04;488.83;;;133.83;;
61204;SDS011;47068;55.780;37.520;2022-12-20T01:16:33;360.03;;;112.70;;
61204;SDS011;47068;55.780;37.520;2022-12-20T01:19:00;379.47;;;115.23;;
61204;SDS011;47068;55.780;37.520;2022-12-20T01:21:27;374.98;;;115.88;;
61204;SDS011;47068;55.780;37.520;2022-12-20T01:23:52;375.38;;;114.28;;
61204;SDS011;47068;55.780;37.520;2022-12-20T01:26:21;382.23;;;115.30;;
61204;SDS011;47068;55.780;37.520;2022-12-20T01:28:50;389.87;;;116.77;;
61204;SDS011;47068;55.780;37.520;2022-12-20T01:31:17;481.97;;;134.43;;
61204;SDS011;47068;55.780;37.520;2022-12-20T01:33:44;359.60;;;115.80;;
61204;SDS011;47068;55.780;37.520;2022-12-20T01:36:11;360.87;;;114.30;;
61204;SDS011;47068;55.780;37.520;2022-12-20T01:38:38;361.70;;;115.57;;
61204;SDS011;47068;55.780;37.520;2022-12-20T01:41:04;357.40;;;112.60;;
61204;SDS011;47068;55.780;37.520;2022-12-20T01:46:20;373.17;;;113.93;;
61204;SDS011;47068;55.780;37.520;2022-12-20T01:48:50;325.70;;;110.83;;
61204;SDS011;47068;55.780;37.520;2022-12-20T01:51:20;338.67;;;112.20;;
61204;SDS011;47068;55.780;37.520;2022-12-20T01:53:48;330.10;;;112.73;;
61204;SDS011;47068;55.780;37.520;2022-12-20T01:56:18;340.67;;;112.23;;
61204;SDS011;47068;55.780;37.520;2022-12-20T01:58:44;396.93;;;117.47;;
61204;SDS011;47068;55.780;37.520;2022-12-20T02:01:13;348.43;;;110.27;;
61204;SDS011;47068;55.780;37.520;2022-12-20T02:03:38;347.73;;;109.70;;
61204;SDS011;47068;55.780;37.520;2022-12-20T02:06:13;337.13;;;109.03;;
61204;SDS011;47068;55.780;37.520;2022-12-20T02:08:40;341.23;;;108.60;;
61204;SDS011;47068;55.780;37.520;2022-12-20T02:16:13;368.10;;;111.90;;
61204;SDS011;47068;55.780;37.520;2022-12-20T02:19:35;381.50;;;111.47;;
61204;SDS011;47068;55.780;37.520;2022-12-20T02:21:38;473.90;;;122.60;;
61204;SDS011;47068;55.780;37.520;2022-12-20T02:30:04;365.90;;;107.00;;
61204;SDS011;47068;55.780;37.520;2022-12-20T02:35:20;383.57;;;107.83;;
61204;SDS011;47068;55.780;37.520;2022-12-20T02:37:55;393.03;;;109.67;;
61204;SDS011;47068;55.780;37.520;2022-12-20T02:40:24;398.20;;;109.70;;
61204;SDS011;47068;55.780;37.520;2022-12-20T02:42:54;398.17;;;108.97;;
61204;SDS011;47068;55.780;37.520;2022-12-20T02:45:25;395.23;;;109.23;;
61204;SDS011;47068;55.780;37.520;2022-12-20T02:48:05;488.30;;;124.00;;
61204;SDS011;47068;55.780;37.520;2022-12-20T02:50:43;579.20;;;142.90;;
61204;SDS011;47068;55.780;37.520;2022-12-20T02:53:12;468.83;;;124.97;;
61204;SDS011;47068;55.780;37.520;2022-12-20T02:58:31;452.47;;;114.33;;
61204;SDS011;47068;55.780;37.520;2022-12-20T03:00:58;456.27;;;114.63;;
61204;SDS011;47068;55.780;37.520;2022-12-20T03:03:31;449.23;;;115.50;;
61204;SDS011;47068;55.780;37.520;2022-12-20T03:05:58;461.57;;;117.10;;
61204;SDS011;47068;55.780;37.520;2022-12-20T03:08:24;466.95;;;120.40;;
61204;SDS011;47068;55.780;37.520;2022-12-20T03:10:50;581.58;;;140.00;;
61204;SDS011;47068;55.780;37.520;2022-12-20T03:13:17;483.13;;;121.77;;
61204;SDS011;47068;55.780;37.520;2022-12-20T03:15:42;486.40;;;121.60;;
61204;SDS011;47068;55.780;37.520;2022-12-20T03:18:08;623.88;;;137.57;;
61204;SDS011;47068;55.780;37.520;2022-12-20T03:20:34;617.92;;;144.40;;
61204;SDS011;47068;55.780;37.520;2022-12-20T03:22:59;607.95;;;139.32;;
61204;SDS011;47068;55.780;37.520;2022-12-20T03:25:24;557.78;;;130.35;;
61204;SDS011;47068;55.780;37.520;2022-12-20T03:27:50;580.70;;;132.20;;
61204;SDS011;47068;55.780;37.520;2022-12-20T03:30:16;451.65;;;115.45;;
61204;SDS011;47068;55.780;37.520;2022-12-20T03:32:42;472.83;;;115.43;;
61204;SDS011;47068;55.780;37.520;2022-12-20T03:35:07;403.88;;;104.25;;
61204;SDS011;47068;55.780;37.520;2022-12-20T03:37:33;461.63;;;114.38;;
61204;SDS011;47068;55.780;37.520;2022-12-20T03:39:58;517.33;;;127.13;;
61204;SDS011;47068;55.780;37.520;2022-12-20T03:42:24;519.00;;;122.40;;
61204;SDS011;47068;55.780;37.520;2022-12-20T03:44:50;423.70;;;109.60;;
61204;SDS011;47068;55.780;37.520;2022-12-20T03:47:15;406.30;;;103.70;;
61204;SDS011;47068;55.780;37.520;2022-12-20T03:49:41;432.08;;;111.97;;
61204;SDS011;47068;55.780;37.520;2022-12-20T03:52:06;488.92;;;120.78;;
61204;SDS011;47068;55.780;37.520;2022-12-20T03:54:35;466.20;;;115.47;;
61204;SDS011;47068;55.780;37.520;2022-12-20T03:57:01;430.92;;;110.35;;
61204;SDS011;47068;55.780;37.520;2022-12-20T03:59:26;493.70;;;117.07;;
61204;SDS011;47068;55.780;37.520;2022-12-20T04:01:52;580.00;;;130.60;;
61204;SDS011;47068;55.780;37.520;2022-12-20T04:04:17;530.08;;;127.65;;
61204;SDS011;47068;55.780;37.520;2022-12-20T04:06:43;586.05;;;134.25;;
61204;SDS011;47068;55.780;37.520;2022-12-20T04:09:08;460.83;;;114.28;;
61204;SDS011;47068;55.780;37.520;2022-12-20T04:11:34;464.15;;;116.93;;
61204;SDS011;47068;55.780;37.520;2022-12-20T04:13:59;483.03;;;114.90;;
61204;SDS011;47068;55.780;37.520;2022-12-20T04:16:26;487.43;;;119.10;;
61204;SDS011;47068;55.780;37.520;2022-12-20T04:18:53;537.90;;;124.47;;
61204;SDS011;47068;55.780;37.520;2022-12-20T04:21:22;594.72;;;139.00;;
61204;SDS011;47068;55.780;37.520;2022-12-20T04:23:58;602.37;;;137.97;;
61204;SDS011;47068;55.780;37.520;2022-12-20T04:26:25;628.50;;;144.90;;
61204;SDS011;47068;55.780;37.520;2022-12-20T04:28:52;654.60;;;149.70;;
61204;SDS011;47068;55.780;37.520;2022-12-20T04:31:17;574.92;;;134.35;;
61204;SDS011;47068;55.780;37.520;2022-12-20T04:33:44;576.28;;;130.52;;
61204;SDS011;47068;55.780;37.520;2022-12-20T04:38:35;617.77;;;143.77;;
61204;SDS011;47068;55.780;37.520;2022-12-20T04:41:00;613.13;;;151.32;;
61204;SDS011;47068;55.780;37.520;2022-12-20T04:43:26;622.25;;;140.35;;
61204;SDS011;47068;55.780;37.520;2022-12-20T04:45:52;588.22;;;137.95;;
61204;SDS011;47068;55.780;37.520;2022-12-20T04:48:26;587.47;;;142.93;;
61204;SDS011;47068;55.780;37.520;2022-12-20T04:50:52;591.00;;;142.83;;
61204;SDS011;47068;55.780;37.520;2022-12-20T04:56:03;224.37;;;78.90;;
61204;SDS011;47068;55.780;37.520;2022-12-20T04:58:28;150.65;;;68.88;;
61204;SDS011;47068;55.780;37.520;2022-12-20T05:00:54;151.85;;;67.57;;
61204;SDS011;47068;55.780;37.520;2022-12-20T05:03:21;155.02;;;68.53;;
61204;SDS011;47068;55.780;37.520;2022-12-20T05:05:47;155.47;;;68.90;;
61204;SDS011;47068;55.780;37.520;2022-12-20T05:08:13;155.02;;;67.25;;
61204;SDS011;47068;55.780;37.520;2022-12-20T05:10:38;121.40;;;63.22;;
61204;SDS011;47068;55.780;37.520;2022-12-20T05:13:04;132.35;;;64.70;;
61204;SDS011;47068;55.780;37.520;2022-12-20T05:15:30;139.45;;;65.78;;
61204;SDS011;47068;55.780;37.520;2022-12-20T05:17:55;144.35;;;68.53;;
61204;SDS011;47068;55.780;37.520;2022-12-20T05:20:28;146.77;;;66.80;;
61204;SDS011;47068;55.780;37.520;2022-12-20T05:22:55;146.57;;;67.90;;
61204;SDS011;47068;55.780;37.520;2022-12-20T05:25:43;142.97;;;65.67;;
61204;SDS011;47068;55.780;37.520;2022-12-20T05:28:30;220.23;;;80.53;;
61204;SDS011;47068;55.780;37.520;2022-12-20T05:30:56;229.40;;;81.00;;
61204;SDS011;47068;55.780;37.520;2022-12-20T05:33:21;229.50;;;80.72;;
61204;SDS011;47068;55.780;37.520;2022-12-20T05:35:47;237.38;;;83.10;;
61204;SDS011;47068;55.780;37.520;2022-12-20T05:38:12;248.63;;;82.38;;
61204;SDS011;47068;55.780;37.520;2022-12-20T05:40:38;252.88;;;86.78;;
61204;SDS011;47068;55.780;37.520;2022-12-20T05:43:04;261.45;;;85.25;;
61204;SDS011;47068;55.780;37.520;2022-12-20T05:45:30;274.10;;;90.43;;
61204;SDS011;47068;55.780;37.520;2022-12-20T05:47:56;289.05;;;87.57;;
61204;SDS011;47068;55.780;37.520;2022-12-20T05:50:21;282.65;;;88.40;;
61204;SDS011;47068;55.780;37.520;2022-12-20T05:52:47;280.13;;;90.57;;
61204;SDS011;47068;55.780;37.520;2022-12-20T05:55:12;291.30;;;91.10;;
61204;SDS011;47068;55.780;37.520;2022-12-20T05:57:38;294.50;;;92.18;;
61204;SDS011;47068;55.780;37.520;2022-12-20T06:00:07;221.47;;;81.23;;
61204;SDS011;47068;55.780;37.520;2022-12-20T06:02:33;181.68;;;76.78;;
61204;SDS011;47068;55.780;37.520;2022-12-20T06:04:58;175.75;;;74.05;;
61204;SDS011;47068;55.780;37.520;2022-12-20T06:07:24;169.90;;;72.30;;
61204;SDS011;47068;55.780;37.520;2022-12-20T06:09:53;179.07;;;75.47;;
61204;SDS011;47068;55.780;37.520;2022-12-20T06:14:44;186.77;;;73.17;;
61204;SDS011;47068;55.780;37.520;2022-12-20T06:17:10;183.70;;;75.73;;
61204;SDS011;47068;55.780;37.520;2022-12-20T06:19:36;177.18;;;76.90;;
61204;SDS011;47068;55.780;37.520;2022-12-20T06:22:01;164.57;;;72.57;;
61204;SDS011;47068;55.780;37.520;2022-12-20T06:24:27;176.00;;;74.25;;
61204;SDS011;47068;55.780;37.520;2022-12-20T06:26:53;174.10;;;76.27;;
61204;SDS011;47068;55.780;37.520;2022-12-20T06:29:18;195.55;;;77.78;;
61204;SDS011;47068;55.780;37.520;2022-12-20T06:31:45;177.48;;;75.55;;
61204;SDS011;47068;55.780;37.520;2022-12-20T06:34:11;179.77;;;76.13;;
61204;SDS011;47068;55.780;37.520;2022-12-20T06:36:37;185.93;;;77.50;;
61204;SDS011;47068;55.780;37.520;2022-12-20T06:39:03;189.20;;;78.87;;
61204;SDS011;47068;55.780;37.520;2022-12-20T06:41:28;199.45;;;79.95;;
61204;SDS011;47068;55.780;37.520;2022-12-20T06:43:54;191.67;;;78.77;;
61204;SDS011;47068;55.780;37.520;2022-12-20T06:46:19;206.27;;;80.93;;
61204;SDS011;47068;55.780;37.520;2022-12-20T06:48:45;211.40;;;84.32;;
61204;SDS011;47068;55.780;37.520;2022-12-20T06:51:11;219.23;;;84.50;;
61204;SDS011;47068;55.780;37.520;2022-12-20T06:53:36;225.90;;;83.90;;
61204;SDS011;47068;55.780;37.520;2022-12-20T06:56:02;234.82;;;85.85;;
61204;SDS011;47068;55.780;37.520;2022-12-20T06:58:27;232.25;;;85.35;;
61204;SDS011;47068;55.780;37.520;2022-12-20T07:00:53;227.45;;;84.18;;
61204;SDS011;47068;55.780;37.520;2022-12-20T07:03:19;246.07;;;86.40;;
61204;SDS011;47068;55.780;37.520;2022-12-20T07:05:45;264.17;;;89.33;;
61204;SDS011;47068;55.780;37.520;2022-12-20T07:08:16;256.10;;;88.70;;
61204;SDS011;47068;55.780;37.520;2022-12-20T07:10:41;251.20;;;86.50;;
61204;SDS011;47068;55.780;37.520;2022-12-20T07:13:07;248.90;;;86.80;;
61204;SDS011;47068;55.780;37.520;2022-12-20T07:15:33;251.63;;;86.72;;
61204;SDS011;47068;55.780;37.520;2022-12-20T07:17:59;120.75;;;69.38;;
61204;SDS011;47068;55.780;37.520;2022-12-20T07:20:25;126.78;;;68.45;;
61204;SDS011;47068;55.780;37.520;2022-12-20T07:22:51;113.30;;;64.70;;
61204;SDS011;47068;55.780;37.520;2022-12-20T07:25:16;109.82;;;64.07;;
61204;SDS011;47068;55.780;37.520;2022-12-20T07:27:42;135.13;;;69.18;;
61204;SDS011;47068;55.780;37.520;2022-12-20T07:30:11;159.70;;;71.37;;
61204;SDS011;47068;55.780;37.520;2022-12-20T07:32:37;143.15;;;69.68;;
61204;SDS011;47068;55.780;37.520;2022-12-20T07:35:02;145.70;;;69.63;;
61204;SDS011;47068;55.780;37.520;2022-12-20T07:37:28;143.45;;;70.10;;
61204;SDS011;47068;55.780;37.520;2022-12-20T07:39:54;154.50;;;69.80;;
61204;SDS011;47068;55.780;37.520;2022-12-20T07:42:20;174.40;;;73.55;;
61204;SDS011;47068;55.780;37.520;2022-12-20T07:44:45;179.00;;;74.88;;
61204;SDS011;47068;55.780;37.520;2022-12-20T07:47:11;185.65;;;75.45;;
61204;SDS011;47068;55.780;37.520;2022-12-20T07:49:37;175.27;;;74.57;;
61204;SDS011;47068;55.780;37.520;2022-12-20T07:52:03;172.37;;;72.70;;
61204;SDS011;47068;55.780;37.520;2022-12-20T07:54:31;188.27;;;75.93;;
61204;SDS011;47068;55.780;37.520;2022-12-20T07:57:00;184.10;;;74.37;;
61204;SDS011;47068;55.780;37.520;2022-12-20T07:59:35;190.17;;;75.93;;
61204;SDS011;47068;55.780;37.520;2022-12-20T08:02:05;189.90;;;76.67;;
61204;SDS011;47068;55.780;37.520;2022-12-20T08:04:37;323.17;;;94.93;;
61204;SDS011;47068;55.780;37.520;2022-12-20T08:07:03;323.55;;;92.00;;
61204;SDS011;47068;55.780;37.520;2022-12-20T08:09:29;330.13;;;96.47;;
61204;SDS011;47068;55.780;37.520;2022-12-20T08:11:59;333.80;;;96.20;;
61204;SDS011;47068;55.780;37.520;2022-12-20T08:14:25;338.08;;;97.47;;
61204;SDS011;47068;55.780;37.520;2022-12-20T08:16:51;334.02;;;96.88;;
61204;SDS011;47068;55.780;37.520;2022-12-20T08:19:16;356.17;;;99.05;;
61204;SDS011;47068;55.780;37.520;2022-12-20T08:21:42;341.60;;;97.77;;
61204;SDS011;47068;55.780;37.520;2022-12-20T08:24:07;347.88;;;97.38;;
61204;SDS011;47068;55.780;37.520;2022-12-20T08:26:39;346.25;;;95.07;;
61204;SDS011;47068;55.780;37.520;2022-12-20T08:29:05;593.70;;;145.13;;
61204;SDS011;47068;55.780;37.520;2022-12-20T08:31:32;565.00;;;130.63;;
61204;SDS011;47068;55.780;37.520;2022-12-20T08:34:01;575.63;;;129.00;;
61204;SDS011;47068;55.780;37.520;2022-12-20T08:36:27;575.87;;;131.37;;
61204;SDS011;47068;55.780;37.520;2022-12-20T08:38:52;696.05;;;170.40;;
61204;SDS011;47068;55.780;37.520;2022-12-20T08:41:18;621.38;;;141.75;;
61204;SDS011;47068;55.780;37.520;2022-12-20T08:43:43;603.90;;;145.02;;
61204;SDS011;47068;55.780;37.520;2022-12-20T08:46:09;519.65;;;132.52;;
61204;SDS011;47068;55.780;37.520;2022-12-20T08:48:36;312.37;;;91.77;;
61204;SDS011;47068;55.780;37.520;2022-12-20T08:51:03;295.52;;;89.93;;
61204;SDS011;47068;55.780;37.520;2022-12-20T08:53:31;288.13;;;91.43;;
61204;SDS011;47068;55.780;37.520;2022-12-20T08:56:08;304.10;;;91.80;;
61204;SDS011;47068;55.780;37.520;2022-12-20T08:58:39;296.77;;;91.27;;
61204;SDS011;47068;55.780;37.520;2022-12-20T09:01:06;315.50;;;93.30;;
61204;SDS011;47068;55.780;37.520;2022-12-20T09:03:34;315.53;;;95.53;;
61204;SDS011;47068;55.780;37.520;2022-12-20T09:06:00;326.47;;;93.87;;
61204;SDS011;47068;55.780;37.520;2022-12-20T09:08:30;339.67;;;100.43;;
61204;SDS011;47068;55.780;37.520;2022-12-20T09:11:07;336.90;;;96.47;;
61204;SDS011;47068;55.780;37.520;2022-12-20T09:13:36;309.23;;;93.40;;
61204;SDS011;47068;55.780;37.520;2022-12-20T09:16:02;295.08;;;92.82;;
61204;SDS011;47068;55.780;37.520;2022-12-20T09:18:30;308.23;;;93.47;;
61204;SDS011;47068;55.780;37.520;2022-12-20T09:20:58;312.67;;;94.47;;
61204;SDS011;47068;55.780;37.520;2022-12-20T09:23:27;316.83;;;95.63;;
61204;SDS011;47068;55.780;37.520;2022-12-20T09:25:54;332.53;;;95.57;;
61204;SDS011;47068;55.780;37.520;2022-12-20T09:28:25;337.53;;;95.40;;
61204;SDS011;47068;55.780;37.520;2022-12-20T09:30:50;328.95;;;98.60;;
61204;SDS011;47068;55.780;37.520;2022-12-20T09:33:16;299.13;;;91.47;;
61204;SDS011;47068;55.780;37.520;2022-12-20T09:35:45;295.05;;;92.55;;
61204;SDS011;47068;55.780;37.520;2022-12-20T09:38:12;284.17;;;89.37;;
61204;SDS011;47068;55.780;37.520;2022-12-20T09:40:37;293.73;;;93.20;;
61204;SDS011;47068;55.780;37.520;2022-12-20T09:43:11;301.57;;;94.90;;
61204;SDS011;47068;55.780;37.520;2022-12-20T09:45:37;296.00;;;92.60;;
61204;SDS011;47068;55.780;37.520;2022-12-20T09:48:03;291.67;;;91.88;;
61204;SDS011;47068;55.780;37.520;2022-12-20T09:50:36;282.47;;;91.03;;
61204;SDS011;47068;55.780;37.520;2022-12-20T09:53:47;287.03;;;90.80;;
61204;SDS011;47068;55.780;37.520;2022-12-20T09:56:11;286.73;;;90.73;;
61204;SDS011;47068;55.780;37.520;2022-12-20T10:01:16;273.23;;;89.80;;
61204;SDS011;47068;55.780;37.520;2022-12-20T10:03:48;281.30;;;88.33;;
61204;SDS011;47068;55.780;37.520;2022-12-20T10:17:01;270.10;;;88.30;;
61204;SDS011;47068;55.780;37.520;2022-12-20T10:24:58;285.53;;;90.97;;
61204;SDS011;47068;55.780;37.520;2022-12-20T10:27:39;266.80;;;88.57;;
61204;SDS011;47068;55.780;37.520;2022-12-20T10:30:19;264.90;;;88.30;;
61204;SDS011;47068;55.780;37.520;2022-12-20T10:32:47;273.60;;;91.13;;
61204;SDS011;47068;55.780;37.520;2022-12-20T10:37:50;272.13;;;88.60;;
61204;SDS011;47068;55.780;37.520;2022-12-20T10:40:58;262.77;;;88.40;;
61204;SDS011;47068;55.780;37.520;2022-12-20T10:43:23;244.73;;;85.30;;
61204;SDS011;47068;55.780;37.520;2022-12-20T10:48:30;249.40;;;85.83;;
61204;SDS011;47068;55.780;37.520;2022-12-20T10:50:59;259.70;;;88.07;;
61204;SDS011;47068;55.780;37.520;2022-12-20T10:53:27;272.27;;;88.67;;
61204;SDS011;47068;55.780;37.520;2022-12-20T10:56:07;285.50;;;91.23;;
61204;SDS011;47068;55.780;37.520;2022-12-20T10:58:42;283.17;;;90.30;;
61204;SDS011;47068;55.780;37.520;2022-12-20T11:01:18;238.23;;;86.10;;
61204;SDS011;47068;55.780;37.520;2022-12-20T11:03:52;254.33;;;87.63;;
61204;SDS011;47068;55.780;37.520;2022-12-20T11:06:25;126.73;;;68.10;;
61204;SDS011;47068;55.780;37.520;2022-12-20T11:08:55;104.77;;;69.17;;
61204;SDS011;47068;55.780;37.520;2022-12-20T11:11:57;152.43;;;79.87;;
61204;SDS011;47068;55.780;37.520;2022-12-20T11:14:26;149.43;;;76.57;;
61204;SDS011;47068;55.780;37.520;2022-12-20T11:16:53;151.20;;;76.65;;
61204;SDS011;47068;55.780;37.520;2022-12-20T11:19:32;153.37;;;77.97;;
61204;SDS011;47068;55.780;37.520;2022-12-20T11:27:31;167.57;;;81.87;;
61204;SDS011;47068;55.780;37.520;2022-12-20T11:30:14;166.80;;;82.00;;
61204;SDS011;47068;55.780;37.520;2022-12-20T11:33:09;165.10;;;79.80;;
61204;SDS011;47068;55.780;37.520;2022-12-20T11:35:54;182.03;;;85.87;;
61204;SDS011;47068;55.780;37.520;2022-12-20T11:54:43;217.60;;;86.63;;
61204;SDS011;47068;55.780;37.520;2022-12-20T11:57:19;239.57;;;89.10;;
61204;SDS011;47068;55.780;37.520;2022-12-20T11:59:53;246.80;;;89.27;;
61204;SDS011;47068;55.780;37.520;2022-12-20T12:05:19;262.53;;;88.67;;
61204;SDS011;47068;55.780;37.520;2022-12-20T12:07:53;252.67;;;87.47;;
61204;SDS011;47068;55.780;37.520;2022-12-20T12:10:24;254.43;;;88.53;;
61204;SDS011;47068;55.780;37.520;2022-12-20T12:12:59;260.93;;;89.57;;
61204;SDS011;47068;55.780;37.520;2022-12-20T12:15:45;266.67;;;89.40;;
61204;SDS011;47068;55.780;37.520;2022-12-20T12:18:21;266.07;;;88.70;;
61204;SDS011;47068;55.780;37.520;2022-12-20T12:20:51;271.37;;;87.87;;
61204;SDS011;47068;55.780;37.520;2022-12-20T12:23:23;272.93;;;89.17;;
61204;SDS011;47068;55.780;37.520;2022-12-20T12:25:53;278.37;;;89.93;;
61204;SDS011;47068;55.780;37.520;2022-12-20T12:28:19;272.42;;;86.65;;
61204;SDS011;47068;55.780;37.520;2022-12-20T12:30:55;282.07;;;91.07;;
61204;SDS011;47068;55.780;37.520;2022-12-20T12:33:30;287.37;;;89.83;;
61204;SDS011;47068;55.780;37.520;2022-12-20T12:44:45;291.30;;;89.50;;
61204;SDS011;47068;55.780;37.520;2022-12-20T12:47:17;296.50;;;90.70;;
61204;SDS011;47068;55.780;37.520;2022-12-20T12:49:48;297.80;;;94.27;;
61204;SDS011;47068;55.780;37.520;2022-12-20T12:52:27;307.23;;;90.43;;
61204;SDS011;47068;55.780;37.520;2022-12-20T12:55:33;306.70;;;92.43;;
61204;SDS011;47068;55.780;37.520;2022-12-20T13:03:38;86.93;;;53.70;;
61204;SDS011;47068;55.780;37.520;2022-12-20T13:11:29;77.70;;;50.80;;
61204;SDS011;47068;55.780;37.520;2022-12-20T13:16:41;70.27;;;49.60;;
61204;SDS011;47068;55.780;37.520;2022-12-20T13:21:37;74.47;;;49.47;;
61204;SDS011;47068;55.780;37.520;2022-12-20T13:27:02;101.55;;;54.83;;
61204;SDS011;47068;55.780;37.520;2022-12-20T13:29:50;108.53;;;59.07;;
61204;SDS011;47068;55.780;37.520;2022-12-20T13:42:55;110.40;;;58.80;;
61204;SDS011;47068;55.780;37.520;2022-12-20T13:45:23;105.57;;;56.60;;
61204;SDS011;47068;55.780;37.520;2022-12-20T13:47:53;105.43;;;56.33;;
61204;SDS011;47068;55.780;37.520;2022-12-20T13:50:31;116.13;;;60.23;;
61204;SDS011;47068;55.780;37.520;2022-12-20T13:53:04;115.47;;;60.47;;
61204;SDS011;47068;55.780;37.520;2022-12-20T13:55:38;116.57;;;61.33;;
61204;SDS011;47068;55.780;37.520;2022-12-20T13:58:10;114.60;;;58.70;;
61204;SDS011;47068;55.780;37.520;2022-12-20T14:00:39;120.87;;;61.20;;
61204;SDS011;47068;55.780;37.520;2022-12-20T14:03:09;126.60;;;60.78;;
61204;SDS011;47068;55.780;37.520;2022-12-20T14:05:43;126.50;;;61.23;;
61204;SDS011;47068;55.780;37.520;2022-12-20T14:08:13;125.95;;;61.50;;
61204;SDS011;47068;55.780;37.520;2022-12-20T14:10:41;124.50;;;60.50;;
61204;SDS011;47068;55.780;37.520;2022-12-20T14:13:21;124.88;;;60.10;;
61204;SDS011;47068;55.780;37.520;2022-12-20T14:15:51;136.20;;;63.33;;
61204;SDS011;47068;55.780;37.520;2022-12-20T14:20:43;145.52;;;65.00;;
61204;SDS011;47068;55.780;37.520;2022-12-20T14:23:11;144.43;;;65.70;;
61204;SDS011;47068;55.780;37.520;2022-12-20T14:30:49;165.97;;;67.10;;
61204;SDS011;47068;55.780;37.520;2022-12-20T14:33:25;183.10;;;72.65;;
61204;SDS011;47068;55.780;37.520;2022-12-20T14:38:39;179.10;;;68.82;;
61204;SDS011;47068;55.780;37.520;2022-12-20T14:43:55;144.60;;;62.78;;
61204;SDS011;47068;55.780;37.520;2022-12-20T14:46:22;145.93;;;63.20;;
61204;SDS011;47068;55.780;37.520;2022-12-20T14:48:48;146.75;;;65.50;;
61204;SDS011;47068;55.780;37.520;2022-12-20T14:51:29;139.13;;;63.93;;
61204;SDS011;47068;55.780;37.520;2022-12-20T14:53:54;130.68;;;64.28;;
61204;SDS011;47068;55.780;37.520;2022-12-20T14:56:21;124.47;;;63.87;;
61204;SDS011;47068;55.780;37.520;2022-12-20T15:01:25;131.30;;;64.10;;
61204;SDS011;47068;55.780;37.520;2022-12-20T15:03:52;117.07;;;64.50;;
61204;SDS011;47068;55.780;37.520;2022-12-20T15:06:33;124.80;;;68.83;;
61204;SDS011;47068;55.780;37.520;2022-12-20T15:09:05;692.77;;;152.17;;
61204;SDS011;47068;55.780;37.520;2022-12-20T15:11:30;221.88;;;83.43;;
61204;SDS011;47068;55.780;37.520;2022-12-20T15:13:59;232.23;;;85.17;;
61204;SDS011;47068;55.780;37.520;2022-12-20T15:16:26;234.52;;;82.45;;
61204;SDS011;47068;55.780;37.520;2022-12-20T15:18:54;237.43;;;85.80;;
61204;SDS011;47068;55.780;37.520;2022-12-20T15:21:34;233.43;;;81.93;;
61204;SDS011;47068;55.780;37.520;2022-12-20T15:24:05;229.23;;;79.23;;
61204;SDS011;47068;55.780;37.520;2022-12-20T15:26:38;250.87;;;82.47;;
61204;SDS011;47068;55.780;37.520;2022-12-20T15:29:04;248.18;;;81.97;;
61204;SDS011;47068;55.780;37.520;2022-12-20T15:31:32;253.50;;;83.33;;
61204;SDS011;47068;55.780;37.520;2022-12-20T15:34:02;325.17;;;92.27;;
61204;SDS011;47068;55.780;37.520;2022-12-20T15:36:32;349.63;;;95.87;;
61204;SDS011;47068;55.780;37.520;2022-12-20T15:38:58;461.63;;;108.72;;
61204;SDS011;47068;55.780;37.520;2022-12-20T15:41:24;635.17;;;141.38;;
61204;SDS011;47068;55.780;37.520;2022-12-20T15:43:53;682.90;;;147.10;;
61204;SDS011;47068;55.780;37.520;2022-12-20T15:46:21;676.63;;;162.80;;
61204;SDS011;47068;55.780;37.520;2022-12-20T15:48:47;611.50;;;133.80;;
61204;SDS011;47068;55.780;37.520;2022-12-20T15:51:15;564.92;;;126.22;;
61204;SDS011;47068;55.780;37.520;2022-12-20T15:53:42;610.47;;;137.47;;
61204;SDS011;47068;55.780;37.520;2022-12-20T15:56:18;616.28;;;133.15;;
61204;SDS011;47068;55.780;37.520;2022-12-20T15:58:46;523.03;;;119.77;;
61204;SDS011;47068;55.780;37.520;2022-12-20T16:01:23;547.20;;;134.03;;
61204;SDS011;47068;55.780;37.520;2022-12-20T16:03:51;606.90;;;135.43;;
61204;SDS011;47068;55.780;37.520;2022-12-20T16:06:17;697.10;;;160.02;;
61204;SDS011;47068;55.780;37.520;2022-12-20T16:08:42;707.92;;;157.73;;
61204;SDS011;47068;55.780;37.520;2022-12-20T16:11:41;685.63;;;148.63;;